createdAt,value
2022-09-03T00:00:19.480Z,10.03
2022-09-03T00:06:17.718Z,10.05
2022-09-03T00:11:27.380Z,10.02
2022-09-03T00:16:59.485Z,9.96
2022-09-03T00:22:29.937Z,9.91
2022-09-03T00:27:37.201Z,9.86
2022-09-03T00:32:58.827Z,9.81
2022-09-03T00:38:02.070Z,9.78
2022-09-03T00:43:28.794Z,9.76
2022-09-03T00:48:41.801Z,9.71
2022-09-03T00:54:17.322Z,9.65
2022-09-03T00:59:41.460Z,9.61
2022-09-03T01:05:05.034Z,9.58
2022-09-03T01:10:30.836Z,9.52
2022-09-03T01:15:59.868Z,9.48
2022-09-03T01:21:15.029Z,9.42
2022-09-03T01:26:23.642Z,9.34
2022-09-03T01:31:39.042Z,9.25
2022-09-03T01:36:46.926Z,9.17
2022-09-03T01:42:20.575Z,9.11
2022-09-03T01:47:50.478Z,9.06
2022-09-03T01:53:13.174Z,9.01
2022-09-03T01:58:33.513Z,8.93
2022-09-03T02:03:41.506Z,8.88
2022-09-03T02:08:44.854Z,8.85
2022-09-03T02:13:52.985Z,8.89
2022-09-03T02:19:05.915Z,8.88
2022-09-03T02:24:09.495Z,8.79
2022-09-03T02:29:13.594Z,8.73
2022-09-03T02:34:16.442Z,8.72
2022-09-03T02:39:19.671Z,8.72
2022-09-03T02:44:31.636Z,8.69
2022-09-03T02:49:34.968Z,8.67
2022-09-03T02:54:41.973Z,8.57
2022-09-03T02:59:45.876Z,8.49
2022-09-03T03:04:49.322Z,8.41
2022-09-03T03:09:52.481Z,8.35
2022-09-03T03:14:56.285Z,8.30
2022-09-03T03:19:59.081Z,8.26
2022-09-03T03:25:01.977Z,8.25
2022-09-03T03:30:05.339Z,8.25
2022-09-03T03:35:08.406Z,8.26
2022-09-03T03:40:11.974Z,8.26
2022-09-03T03:45:14.928Z,8.25
2022-09-03T03:50:17.940Z,8.24
2022-09-03T03:55:21.962Z,8.23
2022-09-03T04:00:24.872Z,8.16
2022-09-03T04:05:27.653Z,8.12
2022-09-03T04:10:37.447Z,8.16
2022-09-03T04:15:41.087Z,8.26
2022-09-03T04:20:44.134Z,8.32
2022-09-03T04:25:53.195Z,8.28
2022-09-03T04:31:04.531Z,8.26
2022-09-03T04:36:12.225Z,8.27
2022-09-03T04:41:18.022Z,8.31
2022-09-03T04:46:23.576Z,8.29
2022-09-03T04:51:28.189Z,8.30
2022-09-03T04:56:34.111Z,8.39
2022-09-03T05:01:39.359Z,8.54
2022-09-03T05:06:43.641Z,8.70
2022-09-03T05:11:47.005Z,8.89
2022-09-03T05:16:53.076Z,9.11
2022-09-03T05:21:56.150Z,9.36
2022-09-03T05:26:59.108Z,9.60
2022-09-03T05:32:03.181Z,9.85
2022-09-03T05:37:06.055Z,10.11
2022-09-03T05:42:09.153Z,10.33
2022-09-03T05:47:12.084Z,10.56
2022-09-03T05:52:16.955Z,10.87
2022-09-03T05:57:19.797Z,11.21
2022-09-03T06:02:22.975Z,12.39
2022-09-03T06:07:27.668Z,16.88
2022-09-03T06:12:30.538Z,20.71
2022-09-03T06:17:33.480Z,23.81
2022-09-03T06:22:36.407Z,26.46
2022-09-03T06:27:39.256Z,28.14
2022-09-03T06:32:46.019Z,28.68
2022-09-03T06:37:49.256Z,29.58
2022-09-03T06:43:02.743Z,27.66
2022-09-03T06:48:06.068Z,24.73
2022-09-03T06:53:09.429Z,22.65
2022-09-03T06:58:12.304Z,20.96
2022-09-03T07:03:18.061Z,19.46
2022-09-03T07:08:20.879Z,18.50
2022-09-03T07:13:26.164Z,17.59
2022-09-03T07:18:29.008Z,16.90
2022-09-03T07:23:33.567Z,17.60
2022-09-03T07:28:38.498Z,20.49
2022-09-03T07:33:42.532Z,22.39
2022-09-03T07:38:45.781Z,23.93
2022-09-03T07:43:49.254Z,25.38
2022-09-03T07:48:58.176Z,25.99
2022-09-03T07:54:04.059Z,26.58
2022-09-03T07:59:07.761Z,27.20
2022-09-03T08:04:12.010Z,27.27
2022-09-03T08:09:15.024Z,26.37
2022-09-03T08:14:19.202Z,26.05
2022-09-03T08:19:23.520Z,26.15
2022-09-03T08:24:26.556Z,25.83
2022-09-03T08:29:29.355Z,25.00
2022-09-03T08:34:32.708Z,24.03
2022-09-03T08:39:35.974Z,23.80
2022-09-03T08:44:50.030Z,23.82
2022-09-03T08:50:18.326Z,23.63
2022-09-03T08:55:34.490Z,22.61
2022-09-03T09:00:40.200Z,22.33
2022-09-03T09:06:07.291Z,22.54
2022-09-03T09:11:48.801Z,22.48
2022-09-03T09:16:57.536Z,21.64
2022-09-03T09:22:38.560Z,20.79
2022-09-03T09:27:55.266Z,19.80
2022-09-03T09:33:00.633Z,19.37
2022-09-03T09:38:03.874Z,19.17
2022-09-03T09:43:12.385Z,19.02
2022-09-03T09:48:33.725Z,18.67
2022-09-03T09:53:36.914Z,18.49
2022-09-03T09:58:40.173Z,18.23
2022-09-03T10:03:58.156Z,18.16
2022-09-03T10:09:12.708Z,17.86
2022-09-03T10:14:24.229Z,17.71
2022-09-03T10:20:14.764Z,17.71
2022-09-03T10:25:21.296Z,17.67
2022-09-03T10:30:25.478Z,17.62
2022-09-03T10:35:42.521Z,17.57
2022-09-03T10:41:03.391Z,17.44
2022-09-03T10:46:29.007Z,17.45
2022-09-03T10:52:10.034Z,17.39
2022-09-03T10:57:25.102Z,17.29
2022-09-03T11:03:00.320Z,17.21
2022-09-03T11:08:10.149Z,17.29
2022-09-03T11:13:18.963Z,17.31
2022-09-03T11:18:27.215Z,17.23
2022-09-03T11:23:36.457Z,17.16
2022-09-03T11:28:52.131Z,17.13
2022-09-03T11:34:06.442Z,17.10
2022-09-03T11:39:19.111Z,17.12
2022-09-03T11:44:22.123Z,17.18
2022-09-03T11:49:33.663Z,17.19
2022-09-03T11:54:47.148Z,17.21
2022-09-03T11:59:50.409Z,17.23
2022-09-03T12:05:19.640Z,17.21
2022-09-03T12:10:41.855Z,17.22
2022-09-03T12:16:08.641Z,17.19
2022-09-03T12:21:11.764Z,17.19
2022-09-03T12:26:20.646Z,17.22
2022-09-03T12:31:31.242Z,17.29
2022-09-03T12:36:41.608Z,17.34
2022-09-03T12:42:05.839Z,17.42
2022-09-03T12:52:45.265Z,17.43
2022-09-03T12:58:02.192Z,17.43
2022-09-03T13:03:16.501Z,17.44
2022-09-03T13:08:23.813Z,17.38
2022-09-03T13:13:30.143Z,17.38
2022-09-03T13:18:49.187Z,17.41
2022-09-03T13:24:06.631Z,17.43
2022-09-03T13:29:15.391Z,17.40
2022-09-03T13:34:38.419Z,17.40
2022-09-03T13:39:51.338Z,17.47
2022-09-03T13:45:06.355Z,17.51
2022-09-03T13:50:24.381Z,17.46
2022-09-03T13:55:43.588Z,17.45
2022-09-03T14:00:54.311Z,17.40
2022-09-03T14:06:08.982Z,17.39
2022-09-03T14:11:28.063Z,17.40
2022-09-03T14:17:00.240Z,17.44
2022-09-03T14:22:49.820Z,17.48
2022-09-03T14:27:54.788Z,17.48
2022-09-03T14:33:24.655Z,17.50
2022-09-03T14:38:27.563Z,17.47
2022-09-03T14:43:51.770Z,17.50
2022-09-03T14:49:14.684Z,17.53
2022-09-03T14:54:36.300Z,17.50
2022-09-03T15:00:01.452Z,17.37
2022-09-03T15:05:31.155Z,17.31
2022-09-03T15:10:46.990Z,17.26
2022-09-03T15:16:01.773Z,17.25
2022-09-03T15:21:29.448Z,17.36
2022-09-03T15:26:41.886Z,17.36
2022-09-03T15:32:23.341Z,17.33
2022-09-03T15:37:34.661Z,17.25
2022-09-03T15:42:38.676Z,17.18
2022-09-03T15:47:51.910Z,17.14
2022-09-03T15:52:55.119Z,17.12
2022-09-03T15:58:19.491Z,17.08
2022-09-03T16:03:56.191Z,17.17
2022-09-03T16:09:09.760Z,17.26
2022-09-03T16:14:22.251Z,17.46
2022-09-03T16:19:38.417Z,17.60
2022-09-03T16:24:51.593Z,17.38
2022-09-03T16:29:59.706Z,17.08
2022-09-03T16:35:09.365Z,16.86
2022-09-03T16:40:37.116Z,16.68
2022-09-03T16:45:43.105Z,16.53
2022-09-03T16:51:04.509Z,16.41
2022-09-03T16:56:39.719Z,16.26
2022-09-03T17:01:52.765Z,16.12
2022-09-03T17:07:04.026Z,15.98
2022-09-03T17:12:28.196Z,15.84
2022-09-03T17:17:44.213Z,15.69
2022-09-03T17:22:56.136Z,15.54
2022-09-03T17:28:21.448Z,15.41
2022-09-03T17:33:35.731Z,15.23
2022-09-03T17:39:06.957Z,15.09
2022-09-03T17:44:27.309Z,14.92
2022-09-03T17:49:41.483Z,14.77
2022-09-03T17:54:49.609Z,14.63
2022-09-03T18:00:05.591Z,14.48
2022-09-03T18:05:24.167Z,14.33
2022-09-03T18:10:42.067Z,14.20
2022-09-03T18:15:51.992Z,14.06
2022-09-03T18:21:27.766Z,13.93
2022-09-03T18:26:56.053Z,13.80
2022-09-03T18:32:18.923Z,13.68
2022-09-03T18:37:44.156Z,13.55
2022-09-03T18:43:24.399Z,13.44
2022-09-03T18:49:07.977Z,13.33
2022-09-03T18:55:08.651Z,13.21
2022-09-03T19:00:34.901Z,13.09
2022-09-03T19:06:34.975Z,12.96
2022-09-03T19:12:15.223Z,12.84
2022-09-03T19:17:45.548Z,12.72
2022-09-03T19:23:06.734Z,12.60
2022-09-03T19:28:42.279Z,12.50
2022-09-03T19:34:10.795Z,12.39
2022-09-03T19:39:43.982Z,12.28
2022-09-03T19:45:29.143Z,12.19
2022-09-03T19:50:56.353Z,12.09
2022-09-03T19:56:22.488Z,11.99
2022-09-03T20:01:51.714Z,11.91
2022-09-03T20:07:16.249Z,11.83
2022-09-03T20:12:23.343Z,11.76
2022-09-03T20:17:49.189Z,11.69
2022-09-03T20:23:03.333Z,11.59
2022-09-03T20:28:33.811Z,11.48
2022-09-03T20:33:57.911Z,11.40
2022-09-03T20:39:15.754Z,11.35
2022-09-03T20:44:26.216Z,11.29
2022-09-03T20:50:04.423Z,11.23
2022-09-03T20:55:19.848Z,11.16
2022-09-03T21:00:23.770Z,11.08
2022-09-03T21:05:52.691Z,11.00
2022-09-03T21:11:10.159Z,10.93
2022-09-03T21:16:37.893Z,10.87
2022-09-03T21:21:52.733Z,10.84
2022-09-03T21:27:11.199Z,10.84
2022-09-03T21:32:20.426Z,10.81
2022-09-03T21:37:24.664Z,10.77
2022-09-03T21:42:46.261Z,10.72
2022-09-03T21:47:54.016Z,10.65
2022-09-03T21:53:13.639Z,10.58
2022-09-03T21:58:25.924Z,10.52
2022-09-03T22:03:29.111Z,10.48
2022-09-03T22:08:46.441Z,10.46
2022-09-03T22:13:59.221Z,10.43
2022-09-03T22:19:02.219Z,10.37
2022-09-03T22:24:58.988Z,10.30
2022-09-03T22:30:11.508Z,10.21
2022-09-03T22:35:23.352Z,10.16
2022-09-03T22:40:35.409Z,10.13
2022-09-03T22:46:05.774Z,10.10
2022-09-03T22:51:09.371Z,10.05
2022-09-03T22:56:15.978Z,9.98
2022-09-03T23:01:34.989Z,9.92
2022-09-03T23:06:51.162Z,9.85
2022-09-03T23:12:29.948Z,9.80
2022-09-03T23:17:40.101Z,9.79
2022-09-03T23:22:59.537Z,9.78
2022-09-03T23:28:20.941Z,9.74
2022-09-03T23:33:23.768Z,9.69
2022-09-03T23:39:05.127Z,9.63
2022-09-03T23:44:46.022Z,9.59
2022-09-03T23:50:27.155Z,9.56
2022-09-03T23:55:52.369Z,9.57
